Погода Бон-Жардинна неделю

Мараньян, Бразилия

22 - 28 июня
  • 22июня
    Сегодня
    +22°
    +33°
    Ясно и безоблачно
    ВремяПогодаТемператураВлажностьДавлениеВетер, м/сВероятность осадков
    00:00Ясно и безоблачно+25°C54 %725 мм4.4 м/с5 %
    03:00Ясно и безоблачно+24°C58 %724 мм4.2 м/с5 %
    06:00Ясно и безоблачно+23°C61 %725 мм3.7 м/с5 %
    09:00Ясно и безоблачно+27°C46 %726 мм6.8 м/с5 %
    12:00Облачно с прояснениями+30°C36 %726 мм5.5 м/с5 %
    15:00Ясно и безоблачно+33°C32 %724 мм3.8 м/с5 %
    18:00Ясно и безоблачно+30°C38 %724 мм2.4 м/с5 %
    21:00Ясно и безоблачно+27°C46 %725 мм3.1 м/с5 %
  • 23июня
    Воскресенье
    +23°
    +34°
    Облачно с прояснениями
    ВремяПогодаТемператураВлажностьДавлениеВетер, м/сВероятность осадков
    00:00Ясно и безоблачно+25°C48 %725 мм3.2 м/с5 %
    03:00Небольшая облачность+24°C52 %724 мм3.0 м/с5 %
    06:00Облачно с прояснениями+23°C55 %724 мм2.9 м/с5 %
    09:00Небольшая облачность+28°C44 %726 мм6.3 м/с5 %
    12:00Облачно с прояснениями+31°C35 %725 мм5.3 м/с5 %
    15:00Облачно с прояснениями+33°C30 %723 мм3.6 м/с5 %
    18:00Облачно с прояснениями+30°C37 %723 мм1.8 м/с5 %
    21:00Ясно и безоблачно+27°C42 %725 мм2.6 м/с5 %
  • 24июня
    Понедельник
    +22°
    +34°
    Небольшая облачность
    ВремяПогодаТемператураВлажностьДавлениеВетер, м/сВероятность осадков
    00:00Ясно и безоблачно+25°C47 %724 мм2.6 м/с5 %
    03:00Ясно и безоблачно+25°C49 %723 мм3.0 м/с5 %
    06:00Ясно и безоблачно+23°C52 %724 мм3.3 м/с5 %
    09:00Ясно и безоблачно+28°C42 %726 мм6.3 м/с7 %
    12:00Практически безоблачно+31°C34 %726 мм4.9 м/с3 %
    15:00Небольшая облачность+33°C29 %724 мм3.7 м/с3 %
    18:00Ясно и безоблачно+30°C33 %724 мм3.0 м/с5 %
    21:00Ясно и безоблачно+26°C42 %725 мм1.3 м/с5 %
  • 25июня
    Вторник
    +22°
    +35°
    Небольшая облачность
    ВремяПогодаТемператураВлажностьДавлениеВетер, м/сВероятность осадков
    00:00Ясно и безоблачно+23°C47 %725 мм2.1 м/с5 %
    03:00Ясно и безоблачно+24°C47 %724 мм2.5 м/с5 %
    06:00Ясно и безоблачно+24°C47 %725 мм3.3 м/с5 %
    09:00Ясно и безоблачно+28°C46 %726 мм5.2 м/с5 %
    12:00Практически безоблачно+31°C32 %726 мм4.9 м/с5 %
    15:00Небольшая облачность+33°C27 %724 мм3.3 м/с5 %
    18:00Практически безоблачно+30°C33 %724 мм2.3 м/с3 %
    21:00Ясно и безоблачно+28°C40 %725 мм2.3 м/с5 %
Мы используем cookies
Соглашаюсь